Ramona (236) Station Data

Red Flag Warning: No
Fire Weather Zone: 250
SDGE Region: Ramona
Lat/Lon: 33.073/-116.858

Observations

Time Wind Speed/Gust Temp(F) RH Fuel Moist Fuel Temp(F) Dewpt(F) Tmax(F) Tmin(F) Accum Precip 10-min Precip SL Press(mb)
4/26 2:40am 14 1 G 2 48° 100% - - 48° 52.4° 48° - - -
4/26 2:30am 341 0 G 2 48° 100% - - 48° 52.4° 48° - - -
4/26 2:20am 107 0 G 1 49° 100% - - 49° 52.4° 48.5° - - -
4/26 2:10am 327 1 G 3 50° 100% - - 50° 52.4° 48.8° - - -
4/26 2:00am 20 3 G 5 50° 100% - - 50° 52.4° 48.8° - - -
4/26 1:50am 90 1 G 4 49° 100% - - 49° 52.4° 48.8° - - -
4/26 1:40am 79 1 G 2 49° 100% - - 49° 52.4° 48.8° - - -
4/26 1:30am 0 0 G 0 50° 100% - - 50° 52.4° 49.3° - - -
4/26 1:20am 78 2 G 4 50° 100% - - 50° 52.4° 49.6° - - -
4/26 1:10am 24 2 G 3 51° 100% - - 51° 52.4° 50° - - -
4/26 1:00am 21 2 G 3 51° 100% - - 51° 52.4° 50° - - -
4/26 12:50am 65 2 G 4 51° 100% - - 51° 52.4° 50.1° - - -
4/26 12:40am 145 1 G 2 51° 100% - - 51° 52.4° 50.4° - - -
4/26 12:30am 280 1 G 3 52° 100% - - 52° 52.4° 51.1° - - -
4/26 12:20am 14 2 G 3 52° 100% - - 52° 52.4° 51.4° - - -
4/26 12:10am 292 0 G 1 52° 100% - - 52° 52.4° 51.4° - - -
4/26 12:00am 8 2 G 3 52° 100% - - 52° 67.7° 52.2° - - -
4/25 11:50pm 23 1 G 2 52° 100% - - 52° 67.7° 52.2° - - -
4/25 11:40pm 178 0 G 2 53° 95% - - 51° 67.7° 52.4° - - -
4/25 11:30pm 303 0 G 1 54° 88% - - 50° 67.7° 53.2° - - -
4/25 11:20pm 23 1 G 2 54° 91% - - 52° 67.7° 53.2° - - -
4/25 11:10pm 295 1 G 2 54° 84% - - 49° 67.7° 53.2° - - -
4/25 11:00pm 85 2 G 5 55° 83% - - 50° 67.7° 53.2° - - -
4/25 10:50pm 66 5 G 6 54° 83% - - 49° 67.7° 53.2° - - -
4/25 10:40pm 77 3 G 6 54° 81% - - 48° 67.7° 53.2° - - -
4/25 10:30pm 47 1 G 3 54° 77% - - 47° 67.7° 53.2° - - -
4/25 10:20pm 23 2 G 2 54° 74% - - 46° 67.7° 53.2° - - -
4/25 10:10pm 71 3 G 4 55° 71% - - 46° 67.7° 53.2° - - -
4/25 10:00pm 74 4 G 6 55° 69% - - 45° 67.7° 53.2° - - -
4/25 9:50pm 61 3 G 4 56° 70% - - 46° 67.7° 53.2° - - -
4/25 9:40pm 65 4 G 6 55° 71% - - 46° 67.7° 53.2° - - -
4/25 9:30pm 98 2 G 3 55° 69% - - 45° 67.7° 53.2° - - -
4/25 9:20pm 80 2 G 3 55° 69% - - 45° 67.7° 53.2° - - -
4/25 9:10pm 18 1 G 2 55° 67% - - 44° 67.7° 53.2° - - -
4/25 9:00pm 21 1 G 2 56° 65% - - 44° 67.7° 53.2° - - -
4/25 8:50pm 60 1 G 1 56° 66% - - 45° 67.7° 53.2° - - -
4/25 8:40pm 102 1 G 1 56° 67% - - 45° 67.7° 53.2° - - -
4/25 8:30pm 129 1 G 2 56° 65% - - 45° 67.7° 53.2° - - -
4/25 8:20pm 295 2 G 2 57° 63% - - 45° 67.7° 53.2° - - -
4/25 8:10pm 295 0 G 2 58° 61% - - 44° 67.7° 53.2° - - -
4/25 8:00pm 269 1 G 3 58° 60% - - 44° 67.7° 53.2° - - -
4/25 7:50pm 223 2 G 4 58° 61% - - 45° 67.7° 53.2° - - -
4/25 7:40pm 168 3 G 4 59° 62% - - 45° 67.7° 53.2° - - -
4/25 7:30pm 112 2 G 3 59° 61% - - 45° 67.7° 53.2° - - -
4/25 7:20pm 238 1 G 3 59° 60% - - 45° 67.7° 53.2° - - -
4/25 7:10pm 280 4 G 7 60° 59% - - 45° 67.7° 53.2° - - -
4/25 7:00pm 271 5 G 9 60° 58% - - 45° 67.7° 53.2° - - -
4/25 6:50pm 275 5 G 9 61° 58% - - 46° 67.7° 53.2° - - -
4/25 6:40pm 281 6 G 12 61° 58% - - 46° 67.7° 53.2° - - -
4/25 6:30pm 269 5 G 10 61° 58% - - 47° 67.7° 53.2° - - -
4/25 6:20pm 282 5 G 9 62° 57% - - 47° 67.7° 53.2° - - -
4/25 6:10pm 277 5 G 11 62° 57% - - 47° 67.7° 53.2° - - -
4/25 6:00pm 281 6 G 11 63° 56% - - 47° 67.7° 53.2° - - -
4/25 5:50pm 274 5 G 11 63° 55% - - 46° 67.7° 53.2° - - -
4/25 5:40pm 283 6 G 11 63° 55% - - 47° 67.7° 53.2° - - -
4/25 5:30pm 276 7 G 13 64° 55% - - 47° 67.7° 53.2° - - -
4/25 5:20pm 279 6 G 12 65° 53% - - 48° 67.7° 53.2° - - -
4/25 5:10pm 280 6 G 11 65° 53% - - 48° 67.7° 53.2° - - -
4/25 5:00pm 288 6 G 10 65° 53% - - 48° 67.7° 53.2° - - -
4/25 4:50pm 285 6 G 12 65° 53% - - 48° 67.7° 53.2° - - -
4/25 4:40pm 274 7 G 13 66° 52% - - 48° 67.7° 53.2° - - -
4/25 4:30pm 263 6 G 11 66° 52% - - 48° 67.7° 53.2° - - -
4/25 4:20pm 245 5 G 12 66° 51% - - 47° 67.7° 53.2° - - -
4/25 4:10pm 279 5 G 12 66° 51% - - 47° 67.7° 53.2° - - -
4/25 4:00pm 294 7 G 12 65° 52% - - 47° 67.7° 53.2° - - -
4/25 3:50pm 265 6 G 11 65° 52% - - 47° 67.7° 53.2° - - -
4/25 3:40pm 271 7 G 12 65° 53% - - 47° 67.7° 53.2° - - -
4/25 3:30pm 281 7 G 13 65° 52% - - 47° 67.7° 53.2° - - -
4/25 3:20pm 281 7 G 12 66° 53% - - 48° 67.7° 53.2° - - -
4/25 3:10pm 277 5 G 10 65° 55% - - 48° 67.7° 53.2° - - -
4/25 3:00pm 269 5 G 11 64° 55% - - 48° 67.7° 53.2° - - -
4/25 2:50pm 258 6 G 12 64° 56% - - 48° 67.7° 53.2° - - -
4/25 2:40pm 261 6 G 11 65° 54% - - 48° 67.7° 53.2° - - -
4/25 2:30pm 258 6 G 14 66° 51% - - 47° 67.7° 53.2° - - -
4/25 2:20pm 265 5 G 12 67° 48% - - 46° 67.7° 53.2° - - -
4/25 2:10pm 274 6 G 12 66° 48% - - 46° 67.7° 53.2° - - -
4/25 2:00pm 278 8 G 12 66° 49% - - 46° 67.7° 53.2° - - -
4/25 1:50pm 297 7 G 11 66° 48% - - 46° 67.7° 53.2° - - -
4/25 1:40pm 259 7 G 14 67° 47% - - 46° 67.7° 53.2° - - -
4/25 1:30pm 260 7 G 12 66° 51% - - 47° 67.7° 53.2° - - -
4/25 1:20pm 287 7 G 17 67° 49% - - 47° 67.7° 53.2° - - -
4/25 1:10pm 258 6 G 13 66° 49% - - 46° 66.8° 53.2° - - -
4/25 1:00pm 268 6 G 11 66° 49% - - 46° 66.8° 53.2° - - -
4/25 12:50pm 261 6 G 11 66° 47% - - 45° 66.8° 53.2° - - -
4/25 12:40pm 268 5 G 10 66° 47% - - 45° 66.8° 53.2° - - -
4/25 12:30pm 279 6 G 11 65° 49% - - 46° 66.4° 53.2° - - -
4/25 12:20pm 269 6 G 11 65° 48% - - 45° 66.1° 53.2° - - -
4/25 12:10pm 231 6 G 10 65° 49% - - 45° 66.1° 53.2° - - -
4/25 12:00pm 246 5 G 10 65° 47% - - 44° 66.1° 53.2° - - -
4/25 11:50am 277 6 G 10 65° 47% - - 44° 65.2° 53.2° - - -
4/25 11:40am 287 5 G 9 64° 48% - - 44° 64.5° 53.2° - - -
4/25 11:30am 287 5 G 14 64° 46% - - 43° 64.3° 53.2° - - -
4/25 11:20am 281 5 G 9 64° 47% - - 43° 64.1° 53.2° - - -
4/25 11:10am 294 5 G 11 64° 49% - - 44° 64.1° 53.2° - - -
4/25 11:00am 265 4 G 9 63° 51% - - 45° 63.4° 53.2° - - -
4/25 10:50am 239 3 G 8 62° 57% - - 46° 62.7° 53.2° - - -
4/25 10:40am 202 2 G 9 62° 60% - - 48° 62.6° 53.2° - - -
4/25 10:30am 229 2 G 4 62° 58% - - 47° 62.6° 53.2° - - -
4/25 10:20am 325 3 G 6 62° 60% - - 48° 62.6° 53.2° - - -
4/25 10:10am 282 2 G 5 60° 64% - - 48° 60.8° 53.2° - - -
4/25 10:00am 208 3 G 5 59° 75% - - 51° 59.8° 53.2° - - -
4/25 9:50am 210 5 G 9 59° 76% - - 51° 59.3° 53.2° - - -
4/25 9:40am 220 5 G 8 59° 76% - - 51° 59.3° 53.2° - - -
4/25 9:30am 190 5 G 8 59° 78% - - 52° 58.9° 53.2° - - -
4/25 9:20am 201 5 G 10 58° 85% - - 54° 58.6° 53.2° - - -
4/25 9:10am 223 4 G 9 58° 91% - - 55° 58.6° 53.2° - - -
4/25 9:00am 193 5 G 11 58° 99% - - 57° 57.9° 53.2° - - -
4/25 8:50am 196 4 G 8 57° 100% - - 57° 57.9° 53.2° - - -
4/25 8:40am 208 5 G 8 56° 100% - - 56° 56.7° 53.2° - - -
4/25 8:30am 196 5 G 9 56° 100% - - 56° 56.5° 53.2° - - -
4/25 8:20am 203 4 G 7 56° 100% - - 56° 56.3° 53.2° - - -
4/25 8:10am 203 5 G 9 56° 100% - - 56° 56° 53.2° - - -
4/25 8:00am 213 4 G 9 55° 100% - - 55° 55.7° 53.2° - - -
4/25 7:50am 202 4 G 7 55° 100% - - 55° 55.3° 53.2° - - -
4/25 7:40am 197 3 G 8 55° 100% - - 55° 55.1° 53.2° - - -
4/25 7:30am 184 5 G 9 54° 100% - - 54° 55.1° 53.2° - - -
4/25 7:20am 184 5 G 9 54° 100% - - 54° 55.1° 53.2° - - -
4/25 7:10am 189 5 G 10 54° 100% - - 54° 55.1° 53.2° - - -
4/25 7:00am 172 3 G 6 54° 100% - - 54° 55.1° 53.2° - - -
4/25 6:50am 177 3 G 7 54° 100% - - 54° 55.1° 53.2° - - -
4/25 6:40am 186 3 G 7 54° 100% - - 54° 55.1° 53.2° - - -
4/25 6:30am 179 3 G 5 54° 100% - - 54° 55.1° 53.2° - - -
4/25 6:20am 181 3 G 6 54° 100% - - 54° 55.1° 53.2° - - -
4/25 6:10am 184 4 G 8 54° 100% - - 54° 55.1° 53.2° - - -
4/25 6:00am 186 3 G 6 54° 100% - - 54° 55.1° 53.2° - - -
4/25 5:50am 176 3 G 6 54° 100% - - 54° 55.1° 53.2° - - -
4/25 5:40am 149 3 G 5 53° 100% - - 53° 55.1° 53.2° - - -
4/25 5:30am 142 2 G 4 53° 100% - - 53° 55.1° 53.2° - - -
4/25 5:20am 151 3 G 5 53° 100% - - 53° 55.1° 53.2° - - -
4/25 5:10am 152 2 G 5 53° 100% - - 53° 55.1° 53.3° - - -
4/25 5:00am 156 3 G 7 54° 100% - - 54° 55.1° 53.3° - - -
4/25 4:50am 168 4 G 7 54° 100% - - 54° 55.1° 53.5° - - -
4/25 4:40am 161 3 G 6 54° 100% - - 54° 55.1° 53.5° - - -
4/25 4:30am 159 3 G 6 54° 100% - - 54° 55.1° 53.5° - - -
4/25 4:20am 160 3 G 5 54° 100% - - 54° 55.1° 53.5° - - -
4/25 4:10am 170 3 G 7 54° 100% - - 54° 55.1° 53.6° - - -
4/25 4:00am 184 6 G 11 54° 100% - - 54° 55.1° 53.6° - - -
4/25 3:50am 169 6 G 10 54° 100% - - 54° 55.1° 53.8° - - -
4/25 3:40am 182 4 G 9 54° 100% - - 54° 55.1° 54° - - -
4/25 3:30am 180 5 G 9 54° 100% - - 54° 55.1° 54° - - -
4/25 3:20am 190 5 G 10 54° 100% - - 54° 55.1° 54° - - -
4/25 3:10am 196 6 G 11 54° 100% - - 54° 55.1° 54° - - -
4/25 3:00am 186 5 G 9 54° 100% - - 54° 55.1° 54° - - -
4/25 2:50am 211 4 G 8 54° 100% - - 54° 55.1° 54° - - -
4/25 2:40am 202 4 G 9 54° 100% - - 54° 55.1° 54° - - -
4/25 2:30am 200 5 G 9 54° 100% - - 54° 55.1° 54° - - -
4/25 2:20am 204 5 G 9 55° 100% - - 55° 55.1° 54° - - -
4/25 2:10am 194 4 G 8 55° 100% - - 55° 55.1° 54° - - -
4/25 2:00am 187 5 G 9 55° 100% - - 55° 55.1° 54° - - -
4/25 1:50am 193 7 G 13 55° 100% - - 55° 55.1° 54° - - -
4/25 1:40am 187 5 G 10 55° 100% - - 55° 55.1° 54° - - -
4/25 1:30am 192 4 G 10 55° 100% - - 55° 55.1° 54° - - -
4/25 1:20am 189 5 G 9 55° 100% - - 55° 55.1° 54° - - -
4/25 1:10am 199 5 G 9 55° 100% - - 55° 55.1° 54° - - -
4/25 1:00am 185 4 G 8 55° 100% - - 55° 55.1° 54° - - -
4/25 12:50am 191 5 G 8 54° 100% - - 54° 55.1° 54° - - -
4/25 12:40am 187 6 G 11 55° 100% - - 55° 55.1° 54.1° - - -
4/25 12:30am 177 5 G 9 55° 100% - - 55° 55.1° 54.7° - - -
4/25 12:20am 180 4 G 8 55° 100% - - 55° 55.1° 54.7° - - -
4/25 12:10am 184 5 G 9 55° 100% - - 55° 55.1° 54.7° - - -
4/25 12:00am 168 6 G 11 55° 100% - - 55° 70° 52° - - -
4/24 11:50pm 174 4 G 9 55° 100% - - 55° 70° 52° - - -
4/24 11:40pm 197 4 G 8 55° 100% - - 55° 70° 52° - - -
4/24 11:30pm 218 4 G 8 55° 100% - - 55° 70° 52° - - -
4/24 11:20pm 215 3 G 8 55° 100% - - 55° 70° 52° - - -
4/24 11:10pm 216 3 G 6 55° 100% - - 55° 70° 52° - - -
4/24 11:00pm 219 3 G 7 55° 100% - - 55° 70° 52° - - -
4/24 10:50pm 224 3 G 7 55° 100% - - 55° 70° 52° - - -
4/24 10:40pm 219 3 G 8 55° 100% - - 55° 70° 52° - - -
4/24 10:30pm 209 4 G 6 56° 100% - - 56° 70° 52° - - -
4/24 10:20pm 225 3 G 6 56° 100% - - 56° 70° 52° - - -
4/24 10:10pm 210 3 G 5 56° 100% - - 56° 70° 52° - - -
4/24 10:00pm 206 4 G 6 56° 100% - - 56° 70° 52° - - -
4/24 9:50pm 223 3 G 6 56° 100% - - 56° 70° 52° - - -
4/24 9:40pm 231 2 G 4 57° 100% - - 57° 70° 52° - - -
4/24 9:30pm 246 2 G 4 57° 100% - - 57° 70° 52° - - -
4/24 9:20pm 250 2 G 4 56° 100% - - 56° 70° 52° - - -
4/24 9:10pm 242 3 G 5 56° 100% - - 56° 70° 52° - - -
4/24 9:00pm 246 2 G 4 56° 100% - - 56° 70° 52° - - -
4/24 8:50pm 257 2 G 5 56° 100% - - 56° 70° 52° - - -
4/24 8:40pm 282 3 G 5 57° 100% - - 57° 70° 52° - - -
4/24 8:30pm 268 3 G 5 57° 100% - - 57° 70° 52° - - -
4/24 8:20pm 294 2 G 5 57° 100% - - 57° 70° 52° - - -
4/24 8:10pm 277 3 G 6 57° 100% - - 57° 70° 52° - - -
4/24 8:00pm 267 2 G 5 57° 100% - - 57° 70° 52° - - -
4/24 7:50pm 267 2 G 6 57° 100% - - 57° 70° 52° - - -
4/24 7:40pm 266 3 G 6 57° 100% - - 57° 70° 52° - - -
4/24 7:30pm 279 2 G 5 57° 100% - - 57° 70° 52° - - -
4/24 7:20pm 287 4 G 6 58° 100% - - 58° 70° 52° - - -
4/24 7:10pm 278 3 G 7 58° 100% - - 58° 70° 52° - - -
4/24 7:00pm 281 5 G 9 58° 100% - - 58° 70° 52° - - -
4/24 6:50pm 279 5 G 9 59° 100% - - 59° 70° 52° - - -
4/24 6:40pm 280 6 G 10 59° 94% - - 58° 70° 52° - - -
4/24 6:30pm 275 6 G 10 60° 85% - - 55° 70° 52° - - -
4/24 6:20pm 273 5 G 10 61° 74% - - 53° 70° 52° - - -
4/24 6:10pm 264 5 G 10 62° 67% - - 51° 70° 52° - - -
4/24 6:00pm 249 6 G 12 63° 63% - - 50° 70° 52° - - -